Greifswald — 3FEC8 — position and weather

sailwx.info

Track history (hours):
 
Tides and Currents Weather Stations Pressure Air Temp Water Temp Dewpoint Dewpoint Depression Visibility Wind Speed Wind Dir Waves Ship Positions

Greifswald

Last reported at 2016-Jun-28 00:32 UTC. Time now 2016-Jul-01 04:39 UTC.
Position N 43°30' E 035°43'.

Length 191 m; draft 6.5 m.

Type: Ship. MMSI: 370492000.

Date/timePositionNaut miles runAvg speedWind from/ knotsBaromVisibWave heightAir tempDewpointWater temp
2016-Jun-28 00:32N 43°30' E 035°43'1111.0
2016-Jun-27 23:33N 43°34' E 035°29'1110.8
2016-Jun-27 22:33N 43°38' E 035°15'1110.5
2016-Jun-27 21:33N 43°43' E 035°02'1310.5
2016-Jun-27 20:19N 43°48' E 034°45'810.5
2016-Jun-27 19:33N 43°51' E 034°35'1110.7
2016-Jun-27 18:33N 43°55' E 034°21'6310.5
2016-Jun-27 12:33N 44°31' E 033°09'1111.4
2016-Jun-27 11:33N 44°39' E 032°58'3311.0
2016-Jun-27 08:33N 45°03' E 032°27'1110.8
2016-Jun-27 07:34N 45°12' E 032°17'1110.6
2016-Jun-27 06:33N 45°19' E 032°07'10 9.9
2016-Jun-27 05:34N 45°27' E 031°57'10 9.9
2016-Jun-27 04:34N 45°34' E 031°48'10 9.8
2016-Jun-27 03:34N 45°41' E 031°37'1010.2
2016-Jun-27 02:33N 45°48' E 031°28'1010.4
2016-Jun-27 01:34N 45°56' E 031°18'1010.3
2016-Jun-27 00:33N 46°04' E 031°08'1010.2
2016-Jun-26 23:34N 46°12' E 030°59'10 9.8
2016-Jun-26 22:34N 46°17' E 030°47'6 6.4
2016-Jun-26 21:34N 46°21' E 030°39'0 0.0
2016-Jun-26 20:31N 46°21' E 030°39'0 0.0
2016-Jun-26 19:31N 46°21' E 030°39'0 0.0
2016-Jun-26 18:31N 46°21' E 030°39'0 0.0
2016-Jun-26 17:31N 46°21' E 030°39'0 0.0
2016-Jun-26 16:31N 46°21' E 030°39'0 0.0
2016-Jun-26 15:31N 46°21' E 030°39'0 0.0
2016-Jun-26 14:28N 46°21' E 030°39'0 0.0
2016-Jun-26 13:31N 46°21' E 030°39'0 0.0
2016-Jun-26 12:31N 46°21' E 030°39'0 0.0
2016-Jun-26 11:31N 46°21' E 030°39'0 0.0
2016-Jun-26 10:31N 46°21' E 030°39'0 0.0
2016-Jun-26 05:22N 46°21' E 030°39'0 0.1
2016-Jun-26 03:31N 46°20' E 030°39'9 9.3
2016-Jun-26 02:34N 46°18' E 030°51'9 8.5
2016-Jun-26 01:34N 46°13' E 031°02'7 7.3
2016-Jun-26 00:33N 46°08' E 031°09'7 7.3
2016-Jun-25 23:33N 46°03' E 031°17'7 7.4
2016-Jun-25 22:33N 45°57' E 031°24'8 7.5
2016-Jun-25 21:33N 45°52' E 031°32'167 9.2
2016-Jun-25 03:25N 43°57' E 034°24'18210.8
2016-Jun-24 10:31N 42°45' E 038°14'81 2.1
2016-Jun-22 20:09N 42°12' E 039°54'712.4
2016-Jun-22 19:33N 42°14' E 039°44'1313.0
2016-Jun-22 18:34N 42°19' E 039°28'1313.1
2016-Jun-22 17:34N 42°25' E 039°12'1313.1
2016-Jun-22 16:33N 42°30' E 038°56'1313.0
2016-Jun-22 15:33N 42°35' E 038°40'6612.5
2016-Jun-22 10:15N 43°01' E 037°17'912.7
2016-Jun-22 09:32N 43°04' E 037°05'38 9.6
2016-Jun-22 05:33N 43°19' E 036°17'33 9.8
2016-Jun-22 02:12N 43°32' E 035°35'710.3
2016-Jun-22 01:33N 43°35' E 035°27'4110.0
2016-Jun-21 21:30N 43°51' E 034°35'1010.2
2016-Jun-21 20:29N 43°55' E 034°22'12510.3
2016-Jun-21 08:24N 45°17' E 032°10'1113.1
2016-Jun-21 07:34N 45°25' E 031°59'2914.2
2016-Jun-21 05:33N 45°45' E 031°31'1414.1
2016-Jun-21 04:34N 45°56' E 031°18'1414.1
2016-Jun-21 03:34N 46°07' E 031°05'1413.8
2016-Jun-21 02:34N 46°16' E 030°50'9 8.4
2016-Jun-21 01:30N 46°21' E 030°39'0 0.0
2016-Jun-21 00:33N 46°21' E 030°39'0 0.0
2016-Jun-20 23:33N 46°21' E 030°39'0 0.0
2016-Jun-20 22:33N 46°21' E 030°39'0 0.0
2016-Jun-20 21:33N 46°21' E 030°39'0 0.0
2016-Jun-20 20:33N 46°21' E 030°39'0 0.0
2016-Jun-20 19:33N 46°21' E 030°39'0 0.0
2016-Jun-20 18:33N 46°21' E 030°39'0 0.0
2016-Jun-20 17:33N 46°21' E 030°39'0 0.0
2016-Jun-20 16:33N 46°21' E 030°39'0 0.0
2016-Jun-20 15:33N 46°21' E 030°39'0 0.0
2016-Jun-20 14:33N 46°21' E 030°39'4 4.0
2016-Jun-20 13:34N 46°19' E 030°44'1413.8
2016-Jun-20 12:34N 46°13' E 031°02'1514.5
2016-Jun-20 11:34N 46°03' E 031°17'1414.5
2016-Jun-20 10:33N 45°52' E 031°31'1514.6
2016-Jun-20 09:34N 45°41' E 031°45'1514.8
2016-Jun-20 08:34N 45°30' E 031°59'1514.8
2016-Jun-20 07:33N 45°19' E 032°12'4515.0
2016-Jun-20 04:33N 44°45' E 032°55'1515.0
2016-Jun-20 03:33N 44°33' E 033°09'  
Track history (hours):
 
Tides and Currents Weather Stations Pressure Air Temp Water Temp Dewpoint Dewpoint Depression Visibility Wind Speed Wind Dir Waves Ship Positions

Greifswald

Last reported at 2016-Jun-28 00:32 UTC. Time now 2016-Jul-01 04:39 UTC.
Position N 43°30' E 035°43'.

Length 191 m; draft 6.5 m.

Type: Ship. MMSI: 370492000.

Date/timePositionNaut miles runAvg speedWind from/ knotsBaromVisibWave heightAir tempDewpointWater temp
2016-Jun-28 00:32N 43°30' E 035°43'1111.0
2016-Jun-27 23:33N 43°34' E 035°29'1110.8
2016-Jun-27 22:33N 43°38' E 035°15'1110.5
2016-Jun-27 21:33N 43°43' E 035°02'1310.5
2016-Jun-27 20:19N 43°48' E 034°45'810.5
2016-Jun-27 19:33N 43°51' E 034°35'1110.7
2016-Jun-27 18:33N 43°55' E 034°21'6310.5
2016-Jun-27 12:33N 44°31' E 033°09'1111.4
2016-Jun-27 11:33N 44°39' E 032°58'3311.0
2016-Jun-27 08:33N 45°03' E 032°27'1110.8
2016-Jun-27 07:34N 45°12' E 032°17'1110.6
2016-Jun-27 06:33N 45°19' E 032°07'10 9.9
2016-Jun-27 05:34N 45°27' E 031°57'10 9.9
2016-Jun-27 04:34N 45°34' E 031°48'10 9.8
2016-Jun-27 03:34N 45°41' E 031°37'1010.2
2016-Jun-27 02:33N 45°48' E 031°28'1010.4
2016-Jun-27 01:34N 45°56' E 031°18'1010.3
2016-Jun-27 00:33N 46°04' E 031°08'1010.2
2016-Jun-26 23:34N 46°12' E 030°59'10 9.8
2016-Jun-26 22:34N 46°17' E 030°47'6 6.4
2016-Jun-26 21:34N 46°21' E 030°39'0 0.0
2016-Jun-26 20:31N 46°21' E 030°39'0 0.0
2016-Jun-26 19:31N 46°21' E 030°39'0 0.0
2016-Jun-26 18:31N 46°21' E 030°39'0 0.0
2016-Jun-26 17:31N 46°21' E 030°39'0 0.0
2016-Jun-26 16:31N 46°21' E 030°39'0 0.0
2016-Jun-26 15:31N 46°21' E 030°39'0 0.0
2016-Jun-26 14:28N 46°21' E 030°39'0 0.0
2016-Jun-26 13:31N 46°21' E 030°39'0 0.0
2016-Jun-26 12:31N 46°21' E 030°39'0 0.0
2016-Jun-26 11:31N 46°21' E 030°39'0 0.0
2016-Jun-26 10:31N 46°21' E 030°39'0 0.0
2016-Jun-26 05:22N 46°21' E 030°39'0 0.1
2016-Jun-26 03:31N 46°20' E 030°39'9 9.3
2016-Jun-26 02:34N 46°18' E 030°51'9 8.5
2016-Jun-26 01:34N 46°13' E 031°02'7 7.3
2016-Jun-26 00:33N 46°08' E 031°09'7 7.3
2016-Jun-25 23:33N 46°03' E 031°17'7 7.4
2016-Jun-25 22:33N 45°57' E 031°24'8 7.5
2016-Jun-25 21:33N 45°52' E 031°32'167 9.2
2016-Jun-25 03:25N 43°57' E 034°24'18210.8
2016-Jun-24 10:31N 42°45' E 038°14'81 2.1
2016-Jun-22 20:09N 42°12' E 039°54'712.4
2016-Jun-22 19:33N 42°14' E 039°44'1313.0
2016-Jun-22 18:34N 42°19' E 039°28'1313.1
2016-Jun-22 17:34N 42°25' E 039°12'1313.1
2016-Jun-22 16:33N 42°30' E 038°56'1313.0
2016-Jun-22 15:33N 42°35' E 038°40'6612.5
2016-Jun-22 10:15N 43°01' E 037°17'912.7
2016-Jun-22 09:32N 43°04' E 037°05'38 9.6
2016-Jun-22 05:33N 43°19' E 036°17'33 9.8
2016-Jun-22 02:12N 43°32' E 035°35'710.3
2016-Jun-22 01:33N 43°35' E 035°27'4110.0
2016-Jun-21 21:30N 43°51' E 034°35'1010.2
2016-Jun-21 20:29N 43°55' E 034°22'12510.3
2016-Jun-21 08:24N 45°17' E 032°10'1113.1
2016-Jun-21 07:34N 45°25' E 031°59'2914.2
2016-Jun-21 05:33N 45°45' E 031°31'1414.1
2016-Jun-21 04:34N 45°56' E 031°18'1414.1
2016-Jun-21 03:34N 46°07' E 031°05'1413.8
2016-Jun-21 02:34N 46°16' E 030°50'9 8.4
2016-Jun-21 01:30N 46°21' E 030°39'0 0.0
2016-Jun-21 00:33N 46°21' E 030°39'0 0.0
2016-Jun-20 23:33N 46°21' E 030°39'0 0.0
2016-Jun-20 22:33N 46°21' E 030°39'0 0.0
2016-Jun-20 21:33N 46°21' E 030°39'0 0.0
2016-Jun-20 20:33N 46°21' E 030°39'0 0.0
2016-Jun-20 19:33N 46°21' E 030°39'0 0.0
2016-Jun-20 18:33N 46°21' E 030°39'0 0.0
2016-Jun-20 17:33N 46°21' E 030°39'0 0.0
2016-Jun-20 16:33N 46°21' E 030°39'0 0.0
2016-Jun-20 15:33N 46°21' E 030°39'0 0.0
2016-Jun-20 14:33N 46°21' E 030°39'4 4.0
2016-Jun-20 13:34N 46°19' E 030°44'1413.8
2016-Jun-20 12:34N 46°13' E 031°02'1514.5
2016-Jun-20 11:34N 46°03' E 031°17'1414.5
2016-Jun-20 10:33N 45°52' E 031°31'1514.6
2016-Jun-20 09:34N 45°41' E 031°45'1514.8
2016-Jun-20 08:34N 45°30' E 031°59'1514.8
2016-Jun-20 07:33N 45°19' E 032°12'4515.0
2016-Jun-20 04:33N 44°45' E 032°55'1515.0
2016-Jun-20 03:33N 44°33' E 033°09'  

Dump ship's entire track history